Airfield :
LOGIN :

Register | Disclaimer

   EN    FR    IT 

 










Legend :    VFR   Marginal VFR   IFR   Intensive IFR   Very Intensive IFR
Visi :
Ceiling :
>= 8 km
>= 3000ft
5 to 8 km
1000 to 3000 ft
1500m to 5 km
500 to 1000 ft
800 to 1500m
200 to 500 ft
< 800m
< 200 ft
Symbols :   Thunderstorms  Fog  Heavy snow  Heavy precipitations  Wind > 20 kt
SIGMETs :     Misc.  Thunderstorms  Icing  Turbulence  Mountain Waves  Volcanic Ashes






- Airport Elevation : 574 ft
- IATA code : TEQ


LTBU - Corlu

CURRENT METAR :
  • 290320Z 12004KT 9999 FEW035 18/16 Q1012 RMK RWY22 11003KT

EXPIRED METARs :
  • 290250Z 34002KT 9999 FEW035 18/16 Q1012 RMK RWY22 32001KT
  • 290220Z 33004KT 9999 FEW040 18/15 Q1012
  • 290150Z 34004KT CAVOK 17/16 Q1012 RMK RWY22 33004KT
  • 290120Z 33003KT CAVOK 16/15 Q1012 RMK RWY22 32002KT
  • 290050Z 04004KT CAVOK 17/16 Q1013 RMK RWY22 00000KT

TAF TAF LTBU
Valid from the 29 at 00:00 until the 30 at 00:00 UTC


282240Z 2900/2924 22007KT 9999 SCT035 SCT100
PROB30
TEMPO 2903/2906 -TSRA FEW017CB BKN025
BECMG 2906/2909 23022G32KT
PROB40
TEMPO 2909/2912 -TSRA FEW018CB BKN025
BECMG 2914/2917 26008KT



MET'MAP, your aeronautical weather chart ! - Copyright ORBIFLY December 2007 - Disclaimer

ORBIFLY MET'MAP TEAM :

Programming & Development : Alexandra Zaïnal
Concept & original design : Baudouin d'Aumeries
Assistance for programming : Marc-Olivier Méhu
Technical & hardware support : Manuel Goepfert

Contact : metmap@orbifly.com




SOURCES & CREDITS :

   NOAA